createdAt,value
2023-02-11T00:03:27.541Z,6.58
2023-02-11T00:07:30.575Z,6.59
2023-02-11T00:11:32.929Z,6.59
2023-02-11T00:15:34.631Z,6.59
2023-02-11T00:19:36.541Z,6.60
2023-02-11T00:23:38.374Z,6.60
2023-02-11T00:27:40.179Z,6.60
2023-02-11T00:31:42.165Z,6.60
2023-02-11T00:35:44.037Z,6.60
2023-02-11T00:39:45.765Z,6.60
2023-02-11T00:43:48.097Z,6.61
2023-02-11T00:47:49.823Z,6.60
2023-02-11T00:51:51.584Z,6.61
2023-02-11T00:55:53.259Z,6.62
2023-02-11T00:59:55.331Z,6.62
2023-02-11T01:03:57.328Z,6.60
2023-02-11T01:07:59.326Z,6.59
2023-02-11T01:12:01.072Z,6.56
2023-02-11T01:16:04.159Z,6.55
2023-02-11T01:20:08.260Z,6.51
2023-02-11T01:24:09.997Z,6.49
2023-02-11T01:28:20.184Z,6.44
2023-02-11T01:32:21.952Z,6.40
2023-02-11T01:36:23.739Z,6.38
2023-02-11T01:40:25.553Z,6.32
2023-02-11T01:44:33.159Z,6.28
2023-02-11T01:48:39.278Z,6.26
2023-02-11T01:52:42.701Z,6.20
2023-02-11T01:57:08.491Z,6.17
2023-02-11T02:01:14.918Z,6.14
2023-02-11T02:05:23.448Z,6.08
2023-02-11T02:09:32.508Z,6.04
2023-02-11T02:13:35.382Z,6.03
2023-02-11T02:18:08.268Z,5.99
2023-02-11T02:22:47.160Z,5.95
2023-02-11T02:27:05.998Z,5.91
2023-02-11T02:31:16.516Z,5.88
2023-02-11T02:35:32.452Z,5.85
2023-02-11T02:39:36.614Z,5.84
2023-02-11T02:43:41.795Z,5.81
2023-02-11T02:47:43.640Z,5.80
2023-02-11T02:52:09.596Z,5.77
2023-02-11T02:56:16.735Z,5.71
2023-02-11T03:00:41.922Z,5.69
2023-02-11T03:04:57.612Z,5.64
2023-02-11T03:09:24.324Z,5.59
2023-02-11T03:13:33.661Z,5.56
2023-02-11T03:17:39.117Z,5.52
2023-02-11T03:21:43.945Z,5.48
2023-02-11T03:26:28.600Z,5.45
2023-02-11T03:30:40.452Z,5.41
2023-02-11T03:34:51.542Z,5.35
2023-02-11T03:38:57.058Z,5.31
2023-02-11T03:43:01.356Z,5.25
2023-02-11T03:47:05.848Z,5.20
2023-02-11T03:51:11.013Z,5.18
2023-02-11T03:55:17.704Z,5.15
2023-02-11T03:59:19.730Z,5.12
2023-02-11T04:03:21.495Z,5.06
2023-02-11T04:07:24.147Z,5.03
2023-02-11T04:11:25.921Z,4.99
2023-02-11T04:15:27.764Z,4.96
2023-02-11T04:19:29.540Z,4.94
2023-02-11T04:23:31.228Z,4.92
2023-02-11T04:27:33.009Z,4.91
2023-02-11T04:31:34.795Z,4.92
2023-02-11T04:35:36.554Z,4.95
2023-02-11T04:39:38.279Z,4.97
2023-02-11T04:43:40.026Z,5.00
2023-02-11T04:47:41.725Z,5.06
2023-02-11T04:51:47.545Z,5.10
2023-02-11T04:55:51.656Z,5.17
2023-02-11T04:59:53.641Z,5.19
2023-02-11T05:03:55.409Z,5.22
2023-02-11T05:07:57.351Z,5.24
2023-02-11T05:11:59.040Z,5.26
2023-02-11T05:16:00.924Z,5.28
2023-02-11T05:20:02.695Z,5.32
2023-02-11T05:24:04.783Z,5.37
2023-02-11T05:28:06.820Z,5.39
2023-02-11T05:32:09.195Z,5.43
2023-02-11T05:36:13.585Z,5.47
2023-02-11T05:40:15.457Z,5.51
2023-02-11T05:44:17.235Z,5.54
2023-02-11T05:48:19.071Z,5.57
2023-02-11T05:52:24.364Z,5.59
2023-02-11T05:56:26.081Z,5.59
2023-02-11T06:00:27.895Z,5.61
2023-02-11T06:04:29.689Z,5.65
2023-02-11T06:08:31.396Z,5.68
2023-02-11T06:12:33.617Z,5.70
2023-02-11T06:16:35.363Z,5.74
2023-02-11T06:20:37.516Z,5.80
2023-02-11T06:24:58.918Z,5.84
2023-02-11T06:29:01.208Z,5.90
2023-02-11T06:33:02.997Z,5.94
2023-02-11T06:37:05.183Z,5.99
2023-02-11T06:41:10.341Z,6.02
2023-02-11T06:45:13.428Z,6.06
2023-02-11T06:49:15.307Z,6.12
2023-02-11T06:53:17.140Z,6.15
2023-02-11T06:57:18.881Z,6.18
2023-02-11T07:01:21.375Z,6.18
2023-02-11T07:05:23.197Z,6.18
2023-02-11T07:09:24.938Z,6.18
2023-02-11T07:13:26.725Z,6.18
2023-02-11T07:17:28.562Z,6.19
2023-02-11T07:21:30.855Z,6.21
2023-02-11T07:25:32.600Z,6.22
2023-02-11T07:29:34.935Z,6.24
2023-02-11T07:33:37.363Z,6.26
2023-02-11T07:37:39.100Z,6.26
2023-02-11T07:41:40.900Z,6.30
2023-02-11T07:45:42.615Z,6.32
2023-02-11T07:49:45.271Z,6.33
2023-02-11T07:53:47.519Z,6.35
2023-02-11T07:57:49.252Z,6.38
2023-02-11T08:01:51.642Z,6.42
2023-02-11T08:05:53.538Z,6.44
2023-02-11T08:09:55.669Z,6.49
2023-02-11T08:13:57.671Z,6.51
2023-02-11T08:17:59.502Z,6.56
2023-02-11T08:22:01.527Z,6.60
2023-02-11T08:26:04.963Z,6.65
2023-02-11T08:30:07.332Z,6.69
2023-02-11T08:34:11.607Z,6.73
2023-02-11T08:38:13.368Z,6.78
2023-02-11T08:42:17.842Z,6.84
2023-02-11T08:46:20.261Z,6.88
2023-02-11T08:50:22.178Z,6.92
2023-02-11T08:54:23.909Z,6.95
2023-02-11T08:58:25.610Z,7.00
2023-02-11T09:02:27.443Z,7.07
2023-02-11T09:06:29.892Z,7.13
2023-02-11T09:10:31.564Z,7.21
2023-02-11T09:14:33.563Z,7.29
2023-02-11T09:18:35.345Z,7.37
2023-02-11T09:22:37.093Z,7.41
2023-02-11T09:26:43.379Z,7.45
2023-02-11T09:30:45.189Z,7.49
2023-02-11T09:34:46.970Z,7.48
2023-02-11T09:38:49.165Z,7.50
2023-02-11T09:42:53.562Z,7.51
2023-02-11T09:46:59.842Z,7.52
2023-02-11T09:51:04.208Z,7.54
2023-02-11T09:55:30.711Z,7.59
2023-02-11T09:59:32.533Z,7.65
2023-02-11T10:04:02.422Z,7.74
2023-02-11T10:08:09.967Z,7.81
2023-02-11T10:12:28.672Z,7.87
2023-02-11T10:16:33.564Z,7.92
2023-02-11T10:20:39.415Z,7.98
2023-02-11T10:24:48.568Z,8.06
2023-02-11T10:28:53.990Z,8.11
2023-02-11T10:33:03.377Z,8.14
2023-02-11T10:37:07.241Z,8.18
2023-02-11T10:41:26.344Z,8.24
2023-02-11T10:45:32.423Z,8.26
2023-02-11T10:49:44.457Z,8.25
2023-02-11T10:54:13.887Z,8.24
2023-02-11T10:58:25.262Z,8.26
2023-02-11T11:02:34.727Z,8.28
2023-02-11T11:06:36.722Z,8.31
2023-02-11T11:10:43.767Z,8.32
2023-02-11T11:14:55.611Z,8.31
2023-02-11T11:19:06.442Z,8.30
2023-02-11T11:23:22.831Z,8.31
2023-02-11T11:27:26.033Z,8.30
2023-02-11T11:31:35.814Z,8.29
2023-02-11T11:35:37.734Z,8.32
2023-02-11T11:39:40.576Z,8.39
2023-02-11T11:43:55.240Z,8.46
2023-02-11T11:48:24.143Z,8.57
2023-02-11T11:52:31.877Z,8.61
2023-02-11T11:56:38.145Z,8.62
2023-02-11T12:00:49.163Z,8.63
2023-02-11T12:05:07.874Z,8.65
2023-02-11T12:09:09.533Z,8.68
2023-02-11T12:13:25.696Z,8.66
2023-02-11T12:17:33.639Z,8.70
2023-02-11T12:21:59.365Z,8.75
2023-02-11T12:26:17.929Z,8.80
2023-02-11T12:30:38.757Z,8.83
2023-02-11T12:35:17.359Z,8.83
2023-02-11T12:39:49.843Z,8.84
2023-02-11T12:43:52.105Z,8.86
2023-02-11T12:48:22.668Z,8.87
2023-02-11T12:52:42.453Z,8.92
2023-02-11T12:56:50.996Z,8.90
2023-02-11T13:01:01.105Z,8.87
2023-02-11T13:05:14.352Z,8.85
2023-02-11T13:09:24.790Z,8.87
2023-02-11T13:13:35.968Z,8.84
2023-02-11T13:18:01.207Z,8.80
2023-02-11T13:22:16.704Z,8.82
2023-02-11T13:26:28.752Z,8.83
2023-02-11T13:30:35.525Z,8.81
2023-02-11T13:34:43.213Z,8.83
2023-02-11T13:38:54.109Z,8.85
2023-02-11T13:43:00.328Z,8.82
2023-02-11T13:47:05.515Z,8.82
2023-02-11T13:51:10.734Z,8.81
2023-02-11T13:55:23.393Z,8.78
2023-02-11T13:59:25.053Z,8.81
2023-02-11T14:04:11.731Z,8.80
2023-02-11T14:08:40.954Z,8.74
2023-02-11T14:12:42.849Z,8.70
2023-02-11T14:16:59.800Z,8.67
2023-02-11T14:21:18.306Z,8.68
2023-02-11T14:25:25.544Z,8.72
2023-02-11T14:29:36.093Z,8.72
2023-02-11T14:33:57.572Z,8.71
2023-02-11T14:38:18.122Z,8.70
2023-02-11T14:42:25.522Z,8.69
2023-02-11T14:46:30.354Z,8.67
2023-02-11T14:50:41.603Z,8.66
2023-02-11T14:54:45.248Z,8.65
2023-02-11T14:58:52.001Z,8.66
2023-02-11T15:02:53.914Z,8.65
2023-02-11T15:06:57.631Z,8.63
2023-02-11T15:11:02.816Z,8.60
2023-02-11T15:15:04.895Z,8.59
2023-02-11T15:19:07.676Z,8.54
2023-02-11T15:23:21.936Z,8.49
2023-02-11T15:27:25.885Z,8.49
2023-02-11T15:31:28.521Z,8.44
2023-02-11T15:35:44.535Z,8.39
2023-02-11T15:39:46.303Z,8.37
2023-02-11T15:43:51.136Z,8.35
2023-02-11T15:48:13.772Z,8.32
2023-02-11T15:52:23.859Z,8.27
2023-02-11T15:56:44.718Z,8.25
2023-02-11T16:00:50.015Z,8.23
2023-02-11T16:04:58.553Z,8.22
2023-02-11T16:09:06.726Z,8.20
2023-02-11T16:13:08.380Z,8.17
2023-02-11T16:17:24.239Z,8.13
2023-02-11T16:21:39.000Z,8.12
2023-02-11T16:25:42.556Z,8.10
2023-02-11T16:29:47.813Z,8.08
2023-02-11T16:33:49.526Z,8.07
2023-02-11T16:37:51.331Z,8.04
2023-02-11T16:41:53.117Z,8.01
2023-02-11T16:45:54.810Z,8.01
2023-02-11T16:49:57.646Z,8.00
2023-02-11T16:53:59.416Z,7.99
2023-02-11T16:58:01.284Z,7.99
2023-02-11T17:02:03.090Z,8.00
2023-02-11T17:06:10.295Z,7.98
2023-02-11T17:10:21.083Z,7.96
2023-02-11T17:14:22.809Z,7.94
2023-02-11T17:18:24.677Z,7.92
2023-02-11T17:22:26.380Z,7.94
2023-02-11T17:26:28.140Z,7.94
2023-02-11T17:30:29.955Z,7.94
2023-02-11T17:34:32.484Z,7.92
2023-02-11T17:38:35.645Z,7.91
2023-02-11T17:42:37.366Z,7.88
2023-02-11T17:46:39.191Z,7.87
2023-02-11T17:50:40.959Z,7.85
2023-02-11T17:54:42.647Z,7.83
2023-02-11T17:58:44.630Z,7.80
2023-02-11T18:02:46.388Z,7.77
2023-02-11T18:06:48.106Z,7.75
2023-02-11T18:10:49.866Z,7.74
2023-02-11T18:14:57.547Z,7.75
2023-02-11T18:18:59.787Z,7.74
2023-02-11T18:23:01.811Z,7.72
2023-02-11T18:27:03.877Z,7.71
2023-02-11T18:31:06.787Z,7.70
2023-02-11T18:35:14.814Z,7.70
2023-02-11T18:39:17.530Z,7.68
2023-02-11T18:43:20.355Z,7.65
2023-02-11T18:47:22.055Z,7.62
2023-02-11T18:51:24.167Z,7.64
2023-02-11T18:55:26.120Z,7.62
2023-02-11T18:59:27.929Z,7.62
2023-02-11T19:03:29.692Z,7.62
2023-02-11T19:07:32.584Z,7.60
2023-02-11T19:11:54.346Z,7.60
2023-02-11T19:15:56.253Z,7.58
2023-02-11T19:19:58.060Z,7.59
2023-02-11T19:24:00.914Z,7.56
2023-02-11T19:28:03.520Z,7.56
2023-02-11T19:32:06.265Z,7.55
2023-02-11T19:36:09.747Z,7.55
2023-02-11T19:40:12.531Z,7.55
2023-02-11T19:44:14.472Z,7.56
2023-02-11T19:48:16.220Z,7.55
2023-02-11T19:52:17.917Z,7.52
2023-02-11T19:56:20.911Z,7.52
2023-02-11T20:00:22.801Z,7.51
2023-02-11T20:04:25.244Z,7.52
2023-02-11T20:08:27.091Z,7.55
2023-02-11T20:12:29.016Z,7.54
2023-02-11T20:16:46.801Z,7.53
2023-02-11T20:20:49.564Z,7.52
2023-02-11T20:24:51.338Z,7.53
2023-02-11T20:28:54.944Z,7.53
2023-02-11T20:32:58.553Z,7.54
2023-02-11T20:37:00.676Z,7.53
2023-02-11T20:41:07.940Z,7.51
2023-02-11T20:45:10.705Z,7.52
2023-02-11T20:49:19.009Z,7.48
2023-02-11T20:53:20.750Z,7.49
2023-02-11T20:57:22.504Z,7.47
2023-02-11T21:01:30.892Z,7.42
2023-02-11T21:05:32.681Z,7.40
2023-02-11T21:09:34.537Z,7.38
2023-02-11T21:13:38.000Z,7.36
2023-02-11T21:17:39.731Z,7.37
2023-02-11T21:21:42.056Z,7.36
2023-02-11T21:25:43.766Z,7.35
2023-02-11T21:29:53.847Z,7.36
2023-02-11T21:33:59.389Z,7.35
2023-02-11T21:38:01.431Z,7.37
2023-02-11T21:42:03.453Z,7.36
2023-02-11T21:46:14.615Z,7.36
2023-02-11T21:50:20.056Z,7.37
2023-02-11T21:54:22.003Z,7.38
2023-02-11T21:58:24.034Z,7.38
2023-02-11T22:02:25.898Z,7.37
2023-02-11T22:06:31.158Z,7.35
2023-02-11T22:10:32.976Z,7.35
2023-02-11T22:14:36.050Z,7.34
2023-02-11T22:18:38.155Z,7.35
2023-02-11T22:22:39.829Z,7.36
2023-02-11T22:26:41.580Z,7.37
2023-02-11T22:30:43.328Z,7.37
2023-02-11T22:34:45.147Z,7.37
2023-02-11T22:38:47.497Z,7.36
2023-02-11T22:42:49.258Z,7.33
2023-02-11T22:46:52.608Z,7.36
2023-02-11T22:50:54.612Z,7.37
2023-02-11T22:54:56.369Z,7.35
2023-02-11T22:59:03.627Z,7.36
2023-02-11T23:03:06.589Z,7.36
2023-02-11T23:07:08.529Z,7.36
2023-02-11T23:11:11.755Z,7.34
2023-02-11T23:15:13.656Z,7.33
2023-02-11T23:19:17.111Z,7.34
2023-02-11T23:23:18.800Z,7.32
2023-02-11T23:27:20.551Z,7.31
2023-02-11T23:31:28.235Z,7.28
2023-02-11T23:35:30.174Z,7.29
2023-02-11T23:39:31.924Z,7.31
2023-02-11T23:43:34.009Z,7.32
2023-02-11T23:47:35.775Z,7.31
2023-02-11T23:51:37.543Z,7.30
2023-02-11T23:55:43.467Z,7.29
2023-02-11T23:59:49.523Z,7.29
